createdAt,value
2023-08-15T00:00:43.436Z,22.16
2023-08-15T00:03:07.633Z,22.16
2023-08-15T00:05:32.518Z,21.59
2023-08-15T00:07:58.893Z,21.54
2023-08-15T00:10:22.486Z,21.51
2023-08-15T00:12:46.091Z,21.89
2023-08-15T00:15:12.758Z,22.07
2023-08-15T00:17:36.430Z,22.10
2023-08-15T00:20:00.052Z,22.16
2023-08-15T00:22:23.764Z,22.16
2023-08-15T00:24:47.344Z,22.22
2023-08-15T00:27:11.141Z,22.23
2023-08-15T00:29:34.798Z,21.97
2023-08-15T00:31:59.883Z,22.19
2023-08-15T00:34:23.554Z,22.07
2023-08-15T00:36:47.317Z,22.15
2023-08-15T00:39:10.948Z,22.02
2023-08-15T00:41:34.696Z,21.94
2023-08-15T00:43:59.763Z,21.96
2023-08-15T00:46:24.395Z,21.95
2023-08-15T00:48:49.436Z,21.95
2023-08-15T00:51:14.241Z,21.93
2023-08-15T00:53:38.370Z,21.99
2023-08-15T00:56:02.612Z,21.41
2023-08-15T00:58:26.926Z,21.46
2023-08-15T01:00:51.514Z,21.47
2023-08-15T01:03:15.338Z,21.58
2023-08-15T01:05:41.784Z,21.61
2023-08-15T01:08:06.185Z,21.79
2023-08-15T01:10:29.865Z,21.76
2023-08-15T01:13:02.039Z,21.49
2023-08-15T01:15:28.814Z,21.51
2023-08-15T01:18:06.916Z,21.53
2023-08-15T01:20:35.422Z,21.58
2023-08-15T01:23:03.729Z,21.53
2023-08-15T01:25:29.937Z,21.52
2023-08-15T01:27:53.642Z,21.62
2023-08-15T01:30:19.871Z,21.59
2023-08-15T01:32:52.072Z,21.67
2023-08-15T01:35:40.361Z,21.73
2023-08-15T01:38:12.089Z,21.75
2023-08-15T01:40:40.016Z,21.50
2023-08-15T01:43:05.524Z,21.49
2023-08-15T01:45:30.196Z,21.50
2023-08-15T01:47:54.277Z,21.65
2023-08-15T01:50:18.176Z,21.51
2023-08-15T01:52:41.887Z,21.63
2023-08-15T01:55:06.348Z,21.56
2023-08-15T01:57:31.378Z,21.65
2023-08-15T01:59:55.066Z,21.67
2023-08-15T02:02:18.746Z,21.72
2023-08-15T02:04:42.444Z,21.68
2023-08-15T02:07:06.109Z,21.72
2023-08-15T02:09:29.845Z,21.75
2023-08-15T02:11:53.941Z,21.67
2023-08-15T02:14:19.046Z,21.76
2023-08-15T02:16:42.751Z,21.69
2023-08-15T02:19:06.628Z,21.66
2023-08-15T02:21:30.240Z,21.65
2023-08-15T02:23:54.053Z,21.50
2023-08-15T02:26:17.948Z,21.54
2023-08-15T02:28:42.265Z,21.52
2023-08-15T02:31:07.323Z,21.58
2023-08-15T02:33:31.049Z,21.55
2023-08-15T02:35:55.755Z,21.54
2023-08-15T02:38:21.177Z,21.48
2023-08-15T02:40:44.945Z,21.37
2023-08-15T02:43:09.014Z,21.40
2023-08-15T02:45:33.304Z,21.33
2023-08-15T02:48:00.168Z,21.32
2023-08-15T02:50:23.846Z,21.24
2023-08-15T02:52:47.587Z,21.26
2023-08-15T02:55:11.394Z,21.17
2023-08-15T02:57:35.440Z,21.10
2023-08-15T02:59:59.180Z,21.11
2023-08-15T03:02:23.768Z,21.10
2023-08-15T03:04:48.815Z,21.14
2023-08-15T03:07:12.562Z,21.04
2023-08-15T03:09:36.199Z,21.03
2023-08-15T03:12:00.619Z,21.00
2023-08-15T03:14:24.306Z,20.89
2023-08-15T03:16:48.069Z,20.92
2023-08-15T03:19:11.802Z,20.88
2023-08-15T03:21:37.260Z,20.85
2023-08-15T03:24:01.006Z,20.88
2023-08-15T03:26:27.102Z,20.83
2023-08-15T03:28:53.432Z,20.80
2023-08-15T03:31:18.061Z,20.68
2023-08-15T03:33:47.088Z,20.62
2023-08-15T03:36:10.976Z,20.59
2023-08-15T03:38:36.617Z,20.63
2023-08-15T03:41:05.231Z,20.65
2023-08-15T03:43:30.006Z,20.64
2023-08-15T03:45:53.908Z,20.59
2023-08-15T03:48:17.583Z,20.59
2023-08-15T03:50:41.856Z,20.57
2023-08-15T03:53:06.667Z,20.58
2023-08-15T03:55:34.264Z,20.59
2023-08-15T03:57:58.254Z,20.56
2023-08-15T04:00:22.501Z,20.52
2023-08-15T04:02:46.244Z,20.47
2023-08-15T04:05:10.198Z,20.53
2023-08-15T04:07:33.819Z,20.51
2023-08-15T04:09:57.651Z,20.51
2023-08-15T04:12:22.698Z,20.40
2023-08-15T04:14:47.116Z,20.39
2023-08-15T04:17:10.894Z,20.41
2023-08-15T04:19:34.635Z,20.23
2023-08-15T04:21:58.619Z,20.31
2023-08-15T04:24:22.890Z,20.28
2023-08-15T04:26:46.547Z,20.31
2023-08-15T04:29:12.211Z,20.26
2023-08-15T04:31:35.908Z,20.32
2023-08-15T04:34:01.516Z,20.37
2023-08-15T04:36:25.245Z,20.41
2023-08-15T04:38:49.090Z,20.32
2023-08-15T04:41:13.375Z,20.45
2023-08-15T04:43:37.179Z,20.42
2023-08-15T04:46:02.988Z,20.40
2023-08-15T04:48:26.986Z,20.29
2023-08-15T04:50:51.689Z,20.49
2023-08-15T04:53:15.424Z,20.57
2023-08-15T04:55:39.090Z,20.56
2023-08-15T04:58:03.685Z,20.44
2023-08-15T05:00:27.441Z,20.65
2023-08-15T05:02:52.608Z,20.45
2023-08-15T05:05:17.143Z,20.69
2023-08-15T05:07:41.850Z,20.61
2023-08-15T05:10:07.832Z,20.68
2023-08-15T05:12:32.914Z,20.79
2023-08-15T05:14:56.743Z,20.90
2023-08-15T05:17:20.825Z,20.98
2023-08-15T05:19:46.435Z,20.99
2023-08-15T05:22:10.531Z,20.83
2023-08-15T05:24:34.174Z,20.83
2023-08-15T05:26:57.955Z,20.86
2023-08-15T05:29:21.796Z,20.73
2023-08-15T05:31:45.562Z,20.97
2023-08-15T05:34:11.410Z,21.14
2023-08-15T05:36:36.707Z,21.01
2023-08-15T05:39:05.381Z,20.99
2023-08-15T05:41:30.764Z,20.98
2023-08-15T05:43:54.472Z,21.17
2023-08-15T05:46:18.211Z,21.40
2023-08-15T05:48:42.261Z,21.61
2023-08-15T05:51:06.039Z,21.69
2023-08-15T05:53:31.060Z,21.64
2023-08-15T05:55:54.896Z,21.88
2023-08-15T05:58:18.768Z,22.24
2023-08-15T06:00:43.442Z,22.76
2023-08-15T06:03:07.899Z,22.98
2023-08-15T06:05:32.827Z,23.16
2023-08-15T06:07:56.634Z,23.08
2023-08-15T06:10:21.815Z,23.68
2023-08-15T06:12:45.420Z,24.24
2023-08-15T06:15:09.923Z,24.50
2023-08-15T06:17:33.637Z,24.91
2023-08-15T06:19:57.529Z,25.62
2023-08-15T06:22:21.229Z,26.11
2023-08-15T06:24:45.046Z,26.18
2023-08-15T06:27:10.355Z,26.50
2023-08-15T06:29:34.241Z,26.38
2023-08-15T06:32:00.682Z,25.87
2023-08-15T06:34:24.335Z,26.92
2023-08-15T06:36:48.229Z,27.51
2023-08-15T06:39:12.867Z,27.26
2023-08-15T06:41:36.669Z,27.19
2023-08-15T06:44:02.400Z,27.59
2023-08-15T06:46:26.123Z,27.31
2023-08-15T06:48:50.036Z,27.84
2023-08-15T06:51:13.662Z,28.10
2023-08-15T06:53:37.306Z,27.80
2023-08-15T06:56:01.152Z,27.38
2023-08-15T06:58:24.838Z,26.48
2023-08-15T07:00:49.908Z,27.38
2023-08-15T07:03:14.736Z,27.14
2023-08-15T07:05:38.432Z,26.84
2023-08-15T07:08:04.470Z,26.72
2023-08-15T07:10:28.298Z,26.30
2023-08-15T07:12:52.013Z,26.65
2023-08-15T07:15:15.695Z,26.80
2023-08-15T07:17:41.618Z,26.37
2023-08-15T07:20:07.081Z,26.60
2023-08-15T07:22:30.719Z,26.10
2023-08-15T07:24:54.436Z,25.71
2023-08-15T07:27:18.236Z,26.23
2023-08-15T07:29:41.903Z,25.83
2023-08-15T07:32:07.421Z,26.07
2023-08-15T07:34:32.589Z,25.97
2023-08-15T07:36:56.482Z,25.37
2023-08-15T07:39:20.179Z,25.78
2023-08-15T07:41:44.550Z,25.83
2023-08-15T07:44:08.615Z,26.03
2023-08-15T07:46:32.368Z,25.16
2023-08-15T07:48:58.204Z,25.08
2023-08-15T07:51:23.583Z,25.71
2023-08-15T07:53:47.227Z,25.71
2023-08-15T07:56:10.922Z,25.73
2023-08-15T07:58:36.635Z,25.71
2023-08-15T08:01:00.354Z,25.68
2023-08-15T08:03:24.003Z,25.76
2023-08-15T08:05:50.009Z,25.70
2023-08-15T08:08:15.220Z,25.62
2023-08-15T08:10:39.002Z,25.52
2023-08-15T08:13:02.713Z,25.58
2023-08-15T08:15:26.531Z,25.69
2023-08-15T08:17:50.391Z,25.90
2023-08-15T08:20:14.569Z,25.72
2023-08-15T08:22:38.214Z,25.72
2023-08-15T08:25:18.501Z,25.53
2023-08-15T08:27:42.224Z,25.56
2023-08-15T08:30:07.698Z,25.75
2023-08-15T08:32:31.407Z,25.85
2023-08-15T08:34:55.022Z,25.64
2023-08-15T08:37:18.700Z,25.79
2023-08-15T08:39:42.593Z,25.75
2023-08-15T08:42:08.079Z,25.83
2023-08-15T08:44:34.176Z,25.82
2023-08-15T08:46:58.802Z,25.87
2023-08-15T08:49:23.107Z,26.18
2023-08-15T08:51:48.173Z,26.37
2023-08-15T08:54:11.819Z,26.05
2023-08-15T08:56:35.956Z,26.05
2023-08-15T08:59:04.549Z,26.23
2023-08-15T09:01:32.332Z,26.11
2023-08-15T09:03:57.460Z,26.48
2023-08-15T09:06:21.315Z,26.49
2023-08-15T09:08:44.879Z,26.52
2023-08-15T09:11:08.787Z,26.71
2023-08-15T09:13:32.451Z,26.49
2023-08-15T09:15:59.561Z,26.67
2023-08-15T09:18:24.226Z,26.83
2023-08-15T09:20:47.967Z,26.98
2023-08-15T09:23:11.833Z,27.02
2023-08-15T09:25:38.245Z,27.08
2023-08-15T09:28:02.132Z,26.80
2023-08-15T09:30:25.785Z,26.92
2023-08-15T09:32:51.130Z,27.03
2023-08-15T09:35:16.734Z,27.39
2023-08-15T09:37:44.186Z,27.15
2023-08-15T09:40:11.810Z,27.67
2023-08-15T09:42:35.471Z,27.71
2023-08-15T09:44:59.496Z,27.88
2023-08-15T09:47:24.169Z,28.09
2023-08-15T09:49:53.489Z,28.38
2023-08-15T09:52:18.094Z,28.70
2023-08-15T09:54:43.884Z,28.55
2023-08-15T09:57:07.658Z,28.76
2023-08-15T09:59:31.687Z,28.38
2023-08-15T10:01:56.303Z,28.98
2023-08-15T10:04:22.614Z,28.49
2023-08-15T10:06:48.303Z,28.49
2023-08-15T10:09:13.712Z,28.82
2023-08-15T10:11:42.498Z,28.94
2023-08-15T10:14:06.639Z,28.67
2023-08-15T10:16:30.678Z,29.09
2023-08-15T10:18:56.584Z,29.28
2023-08-15T10:21:20.257Z,29.17
2023-08-15T10:23:45.327Z,29.22
2023-08-15T10:26:09.317Z,29.13
2023-08-15T10:28:36.497Z,29.14
2023-08-15T10:31:00.146Z,29.32
2023-08-15T10:33:26.380Z,29.47
2023-08-15T10:35:53.236Z,29.25
2023-08-15T10:38:18.345Z,28.75
2023-08-15T10:40:46.004Z,29.42
2023-08-15T10:43:12.306Z,29.13
2023-08-15T10:45:38.971Z,28.90
2023-08-15T10:48:05.000Z,29.11
2023-08-15T10:50:29.955Z,29.50
2023-08-15T10:53:00.061Z,29.51
2023-08-15T10:55:28.916Z,29.65
2023-08-15T10:57:54.623Z,30.15
2023-08-15T11:00:20.226Z,29.27
2023-08-15T11:02:43.915Z,29.56
2023-08-15T11:05:08.703Z,30.15
2023-08-15T11:07:32.470Z,30.41
2023-08-15T11:09:56.084Z,30.59
2023-08-15T11:12:20.163Z,30.74
2023-08-15T11:14:45.227Z,30.26
2023-08-15T11:17:09.107Z,30.67
2023-08-15T11:19:35.326Z,30.86
2023-08-15T11:22:00.100Z,30.83
2023-08-15T11:24:24.424Z,30.31
2023-08-15T11:26:49.172Z,30.57
2023-08-15T11:29:14.246Z,31.38
2023-08-15T11:31:40.753Z,31.51
2023-08-15T11:34:05.285Z,30.93
2023-08-15T11:36:28.981Z,31.75
2023-08-15T11:38:53.120Z,31.80
2023-08-15T11:41:16.922Z,32.28
2023-08-15T11:43:40.989Z,32.08
2023-08-15T11:46:05.160Z,32.32
2023-08-15T11:48:31.353Z,32.56
2023-08-15T11:50:55.042Z,33.23
2023-08-15T11:53:20.474Z,33.42
2023-08-15T11:55:45.959Z,32.42
2023-08-15T11:58:25.156Z,32.76
2023-08-15T12:00:48.875Z,32.69
2023-08-15T12:03:12.852Z,33.25
2023-08-15T12:05:37.980Z,32.34
2023-08-15T12:08:01.600Z,33.50
2023-08-15T12:10:26.163Z,33.89
2023-08-15T12:12:50.019Z,33.86
2023-08-15T12:15:15.703Z,33.20
2023-08-15T12:17:40.490Z,33.27
2023-08-15T12:20:06.203Z,32.99
2023-08-15T12:22:31.428Z,34.00
2023-08-15T12:24:55.118Z,34.08
2023-08-15T12:27:19.580Z,34.04
2023-08-15T12:29:44.719Z,34.08
2023-08-15T12:32:27.552Z,33.40
2023-08-15T12:34:51.254Z,33.43
2023-08-15T12:37:14.920Z,33.82
2023-08-15T12:39:39.947Z,34.52
2023-08-15T12:42:04.306Z,34.01
2023-08-15T12:44:28.205Z,34.56
2023-08-15T12:46:53.686Z,34.99
2023-08-15T12:49:17.331Z,34.21
2023-08-15T12:51:42.058Z,34.23
2023-08-15T12:54:06.444Z,34.98
2023-08-15T12:56:31.541Z,34.77
2023-08-15T12:58:55.153Z,34.87
2023-08-15T13:01:18.867Z,33.84
2023-08-15T13:03:42.531Z,33.00
2023-08-15T13:06:06.236Z,34.00
2023-08-15T13:08:29.869Z,34.83
2023-08-15T13:10:53.570Z,35.02
2023-08-15T13:13:18.585Z,34.58
2023-08-15T13:15:42.264Z,33.75
2023-08-15T13:18:07.111Z,33.61
2023-08-15T13:20:30.939Z,33.92
2023-08-15T13:22:54.782Z,34.05
2023-08-15T13:25:18.652Z,35.03
2023-08-15T13:27:42.327Z,34.42
2023-08-15T13:30:09.569Z,34.17
2023-08-15T13:32:35.237Z,34.81
2023-08-15T13:34:59.031Z,34.13
2023-08-15T13:37:22.643Z,34.68
2023-08-15T13:39:46.295Z,35.04
2023-08-15T13:42:14.838Z,34.67
2023-08-15T13:44:47.225Z,33.68
2023-08-15T13:47:12.210Z,34.17
2023-08-15T13:49:35.853Z,34.96
2023-08-15T13:51:59.474Z,34.48
2023-08-15T13:54:24.076Z,34.89
2023-08-15T13:56:47.720Z,35.50
2023-08-15T13:59:11.425Z,35.44
2023-08-15T14:01:35.034Z,35.16
2023-08-15T14:04:00.152Z,35.33
2023-08-15T14:06:23.891Z,35.15
2023-08-15T14:08:47.606Z,35.44
2023-08-15T14:11:11.280Z,34.62
2023-08-15T14:13:35.624Z,35.31
2023-08-15T14:15:59.253Z,34.88
2023-08-15T14:18:22.967Z,35.26
2023-08-15T14:20:47.977Z,35.46
2023-08-15T14:23:11.716Z,35.55
2023-08-15T14:25:35.755Z,35.72
2023-08-15T14:27:59.997Z,35.32
2023-08-15T14:30:23.837Z,35.84
2023-08-15T14:32:47.668Z,35.21
2023-08-15T14:35:11.392Z,35.70
2023-08-15T14:37:37.156Z,35.12
2023-08-15T14:40:00.883Z,35.29
2023-08-15T14:42:24.812Z,35.13
2023-08-15T14:44:48.509Z,35.18
2023-08-15T14:47:12.309Z,35.08
2023-08-15T14:49:35.891Z,34.05
2023-08-15T14:51:59.569Z,33.81
2023-08-15T14:54:24.635Z,33.60
2023-08-15T14:56:48.379Z,34.26
2023-08-15T14:59:11.987Z,34.21
2023-08-15T15:01:35.843Z,34.06
2023-08-15T15:03:59.628Z,33.63
2023-08-15T15:06:23.440Z,33.51
2023-08-15T15:08:47.086Z,33.25
2023-08-15T15:11:12.178Z,33.31
2023-08-15T15:13:35.803Z,33.81
2023-08-15T15:16:00.845Z,33.61
2023-08-15T15:18:24.590Z,33.58
2023-08-15T15:20:48.582Z,33.42
2023-08-15T15:23:12.241Z,33.03
2023-08-15T15:25:36.005Z,33.32
2023-08-15T15:28:01.051Z,33.26
2023-08-15T15:30:24.963Z,32.91
2023-08-15T15:32:48.589Z,33.08
2023-08-15T15:35:13.606Z,33.11
2023-08-15T15:37:37.279Z,32.94
2023-08-15T15:40:02.659Z,32.89
2023-08-15T15:42:26.272Z,32.83
2023-08-15T15:44:51.442Z,32.85
2023-08-15T15:47:15.313Z,32.70
2023-08-15T15:49:39.237Z,32.65
2023-08-15T15:52:02.928Z,32.52
2023-08-15T15:54:26.707Z,32.51
2023-08-15T15:56:50.294Z,32.47
2023-08-15T15:59:14.109Z,32.20
2023-08-15T16:01:39.615Z,32.22
2023-08-15T16:04:03.805Z,32.15
2023-08-15T16:06:28.475Z,32.07
2023-08-15T16:08:52.286Z,32.11
2023-08-15T16:11:15.988Z,32.03
2023-08-15T16:13:39.859Z,32.05
2023-08-15T16:16:03.750Z,32.00
2023-08-15T16:18:28.967Z,31.91
2023-08-15T16:20:52.975Z,31.98
2023-08-15T16:23:17.279Z,31.88
2023-08-15T16:25:40.835Z,31.67
2023-08-15T16:28:04.871Z,31.62
2023-08-15T16:30:29.123Z,31.64
2023-08-15T16:32:54.848Z,31.58
2023-08-15T16:35:20.126Z,31.55
2023-08-15T16:37:46.360Z,31.37
2023-08-15T16:40:11.238Z,31.33
2023-08-15T16:42:34.931Z,31.29
2023-08-15T16:44:58.623Z,31.19
2023-08-15T16:47:23.568Z,31.14
2023-08-15T16:49:47.243Z,31.09
2023-08-15T16:52:12.392Z,30.93
2023-08-15T16:54:36.049Z,30.92
2023-08-15T16:56:59.763Z,30.88
2023-08-15T16:59:23.420Z,30.76
2023-08-15T17:01:47.242Z,30.65
2023-08-15T17:04:11.197Z,30.58
2023-08-15T17:06:35.072Z,30.51
2023-08-15T17:09:00.146Z,30.34
2023-08-15T17:11:23.921Z,30.32
2023-08-15T17:13:48.082Z,30.21
2023-08-15T17:16:11.752Z,30.13
2023-08-15T17:18:35.371Z,30.01
2023-08-15T17:20:59.058Z,30.00
2023-08-15T17:23:22.655Z,29.96
2023-08-15T17:25:49.225Z,29.83
2023-08-15T17:28:13.860Z,29.77
2023-08-15T17:30:37.516Z,29.72
2023-08-15T17:33:01.220Z,29.61
2023-08-15T17:35:25.058Z,29.56
2023-08-15T17:37:48.993Z,29.49
2023-08-15T17:40:14.156Z,29.46
2023-08-15T17:42:39.142Z,29.30
2023-08-15T17:45:02.866Z,29.20
2023-08-15T17:47:26.501Z,29.16
2023-08-15T17:49:50.851Z,29.14
2023-08-15T17:52:14.465Z,29.06
2023-08-15T17:54:38.259Z,28.95
2023-08-15T17:57:01.884Z,28.82
2023-08-15T17:59:26.955Z,28.78
2023-08-15T18:01:50.518Z,28.71
2023-08-15T18:04:14.206Z,28.60
2023-08-15T18:06:38.569Z,28.57
2023-08-15T18:09:02.863Z,28.63
2023-08-15T18:11:26.599Z,28.38
2023-08-15T18:13:50.291Z,28.36
2023-08-15T18:16:15.459Z,28.30
2023-08-15T18:18:39.588Z,28.22
2023-08-15T18:21:03.966Z,28.19
2023-08-15T18:23:27.658Z,28.11
2023-08-15T18:25:51.324Z,28.09
2023-08-15T18:28:15.031Z,28.01
2023-08-15T18:30:38.651Z,27.97
2023-08-15T18:33:03.800Z,27.94
2023-08-15T18:35:27.405Z,27.86
2023-08-15T18:37:51.047Z,27.82
2023-08-15T18:40:17.238Z,27.79
2023-08-15T18:42:40.918Z,27.68
2023-08-15T18:45:05.577Z,27.64
2023-08-15T18:47:29.405Z,27.59
2023-08-15T18:49:54.420Z,27.58
2023-08-15T18:52:18.082Z,27.50
2023-08-15T18:54:41.718Z,27.44
2023-08-15T18:57:05.921Z,27.28
2023-08-15T18:59:29.515Z,27.31
2023-08-15T19:01:53.261Z,27.14
2023-08-15T19:04:16.918Z,27.08
2023-08-15T19:06:41.913Z,27.00
2023-08-15T19:09:06.208Z,26.95
2023-08-15T19:11:29.883Z,26.81
2023-08-15T19:13:53.522Z,26.86
2023-08-15T19:16:17.342Z,26.86
2023-08-15T19:18:41.179Z,26.82
2023-08-15T19:21:04.902Z,26.78
2023-08-15T19:23:29.983Z,26.69
2023-08-15T19:25:53.709Z,26.66
2023-08-15T19:28:17.630Z,26.68
2023-08-15T19:30:42.880Z,26.62
2023-08-15T19:33:07.080Z,26.61
2023-08-15T19:35:30.914Z,26.61
2023-08-15T19:37:54.734Z,26.54
2023-08-15T19:40:19.986Z,26.49
2023-08-15T19:42:45.772Z,26.48
2023-08-15T19:45:11.535Z,26.46
2023-08-15T19:47:35.455Z,26.13
2023-08-15T19:49:59.290Z,25.30
2023-08-15T19:52:23.232Z,25.29
2023-08-15T19:54:47.146Z,25.33
2023-08-15T19:57:12.193Z,25.19
2023-08-15T19:59:36.189Z,25.53
2023-08-15T20:01:59.835Z,25.55
2023-08-15T20:04:24.827Z,25.43
2023-08-15T20:06:48.490Z,25.39
2023-08-15T20:09:13.096Z,25.11
2023-08-15T20:11:36.815Z,25.01
2023-08-15T20:14:01.963Z,24.73
2023-08-15T20:16:26.595Z,24.60
2023-08-15T20:18:50.282Z,24.43
2023-08-15T20:21:14.345Z,24.20
2023-08-15T20:23:38.111Z,24.12
2023-08-15T20:26:02.734Z,23.93
2023-08-15T20:28:26.594Z,23.73
2023-08-15T20:30:51.687Z,23.96
2023-08-15T20:33:15.739Z,23.78
2023-08-15T20:35:39.533Z,23.82
2023-08-15T20:38:03.311Z,23.63
2023-08-15T20:40:26.925Z,23.81
2023-08-15T20:42:50.609Z,23.57
2023-08-15T20:45:15.010Z,23.52
2023-08-15T20:47:40.589Z,23.51
2023-08-15T20:50:04.526Z,23.40
2023-08-15T20:52:28.231Z,23.45
2023-08-15T20:54:51.836Z,23.47
2023-08-15T20:57:15.534Z,23.76
2023-08-15T20:59:39.219Z,23.56
2023-08-15T21:02:03.141Z,23.71
2023-08-15T21:04:28.480Z,23.62
2023-08-15T21:06:53.494Z,23.52
2023-08-15T21:09:17.198Z,23.35
2023-08-15T21:11:41.112Z,23.56
2023-08-15T21:14:04.866Z,23.64
2023-08-15T21:16:28.600Z,23.39
2023-08-15T21:18:52.364Z,23.52
2023-08-15T21:21:17.417Z,23.34
2023-08-15T21:23:41.050Z,22.93
2023-08-15T21:26:04.832Z,22.97
2023-08-15T21:28:28.554Z,23.09
2023-08-15T21:30:56.431Z,23.07
2023-08-15T21:33:21.545Z,22.88
2023-08-15T21:35:45.229Z,22.90
2023-08-15T21:38:10.286Z,22.79
2023-08-15T21:40:35.209Z,22.88
2023-08-15T21:42:58.812Z,22.98
2023-08-15T21:45:22.457Z,23.14
2023-08-15T21:47:46.149Z,23.06
2023-08-15T21:50:11.123Z,22.86
2023-08-15T21:52:34.751Z,23.13
2023-08-15T21:54:59.814Z,23.07
2023-08-15T21:57:23.958Z,23.06
2023-08-15T21:59:48.136Z,23.01
2023-08-15T22:02:11.802Z,23.02
2023-08-15T22:04:35.649Z,22.84
2023-08-15T22:06:59.271Z,22.77
2023-08-15T22:09:23.229Z,22.83
2023-08-15T22:11:48.334Z,22.97
2023-08-15T22:14:12.034Z,23.08
2023-08-15T22:16:35.857Z,22.68
2023-08-15T22:18:59.621Z,22.84
2023-08-15T22:21:23.333Z,22.87
2023-08-15T22:23:47.100Z,22.79
2023-08-15T22:26:13.429Z,22.81
2023-08-15T22:28:38.451Z,22.63
2023-08-15T22:31:02.110Z,22.58
2023-08-15T22:33:25.808Z,22.94
2023-08-15T22:35:49.410Z,22.98
2023-08-15T22:38:13.209Z,22.90
2023-08-15T22:40:36.901Z,22.90
2023-08-15T22:43:00.761Z,23.02
2023-08-15T22:45:26.267Z,23.03
2023-08-15T22:47:50.026Z,23.06
2023-08-15T22:50:13.640Z,22.92
2023-08-15T22:52:37.311Z,23.03
2023-08-15T22:55:00.969Z,23.10
2023-08-15T22:57:24.980Z,23.05
2023-08-15T22:59:48.885Z,23.04
2023-08-15T23:02:14.040Z,23.06
2023-08-15T23:04:37.773Z,23.04
2023-08-15T23:07:01.637Z,22.93
2023-08-15T23:09:25.334Z,22.89
2023-08-15T23:11:49.314Z,22.89
2023-08-15T23:14:12.985Z,22.98
2023-08-15T23:16:36.666Z,22.85
2023-08-15T23:19:01.684Z,22.81
2023-08-15T23:21:25.513Z,22.87
2023-08-15T23:23:49.101Z,22.73
2023-08-15T23:26:12.760Z,22.89
2023-08-15T23:28:36.438Z,22.70
2023-08-15T23:31:00.196Z,22.38
2023-08-15T23:33:24.476Z,22.61
2023-08-15T23:35:49.583Z,22.57
2023-08-15T23:38:13.168Z,22.54
2023-08-15T23:40:38.017Z,22.62
2023-08-15T23:43:01.641Z,22.65
2023-08-15T23:45:25.325Z,22.74
2023-08-15T23:47:49.044Z,22.51
2023-08-15T23:50:13.406Z,22.67
2023-08-15T23:52:38.559Z,22.53
2023-08-15T23:55:02.296Z,22.57
2023-08-15T23:57:26.698Z,22.58
2023-08-15T23:59:50.644Z,22.49
